METAR Data
IDs: Format: Raw Decoded Include TAF

Data at: 0507 UTC 20 Oct 2018

PACV 200459Z 11008G17KT 070V140 2SM R27/5500VP6000FT -RA BR BKN007 OVC011 09/09 A2908 RMK AO2 PRESRR P0000 T00890089
PACV 200453Z 10012G17KT 1 1/4SM R27/5000VP6000FT RA BR SCT007 BKN011 OVC019 08/08 A2907 RMK AO2 PK WND 10036/0358 PRESRR SLP843 P0025 T00830083
PACV 200448Z 09009KT 1 1/4SM R27/5000VP6000FT +RA BR FEW007 OVC013 08/08 A2906 RMK AO2 PK WND 10036/0358 PRESRR P0024
PACV 200400Z 09018G36KT 1 3/4SM RA BR OVC024 09/08 A2898 RMK AO2 PK WND 10036/0358 P0001 T00890078
PACV 200353Z 10019G30KT 2SM -RA BR OVC024 09/08 A2898 RMK AO2 PK WND 06037/0341 SLP812 P0011 T00890078
PACV 200329Z 08020G36KT 1 3/4SM RA BR BKN021 OVC026 09/08 A2896 RMK AO2 PK WND 08036/0320 P0007 T00890078
PACV 200253Z 09015G25KT 2SM RA BR OVC017 08/08 A2894 RMK AO2 PK WND 11027/0216 SLP801 P0016 60048 T00830078 53017
PACV 200232Z 07012G20KT 2 1/2SM +RA BR FEW013 OVC019 08/08 A2894 RMK AO2 PK WND 11027/0216 P0011 T00830078
PACV 200214Z 09014G22KT 1 3/4SM R27/5500VP6000FT +RA BR SCT021 OVC027 08/08 A2893 RMK AO2 P0004 T00830078
PACV 200153Z 07012G19KT 4SM RA BR OVC038 08/07 A2891 RMK AO2 PK WND 09027/0054 SLP789 P0014 T00830067
PACV 200120Z 09009G22KT 050V120 3SM RA BR BKN029 BKN036 OVC044 09/07 A2890 RMK AO2 PK WND 09027/0054 P0008 T00890072
PACV 200053Z 09014G30KT 2 1/2SM RA BR BKN029 BKN038 OVC047 09/08 A2888 RMK AO2 PK WND 07030/0050 SLP781 P0018 T00940078
PACV 200044Z 08010G26KT 050V110 2SM RA BR BKN029 BKN038 OVC047 09/08 A2888 RMK AO2 PK WND 07026/0036 P0014 T00940078
PACV 192353Z 08008G18KT 4SM -RA BR BKN028 OVC038 08/07 A2889 RMK AO2 PK WND 12032/2254 SLP783 P0021 60124 T00830072 10106 20083 58005
PACV 192338Z 06010G14KT 030V100 3SM RA BR BKN028 OVC035 09/08 A2889 RMK AO2 PK WND 12032/2254 P0018 T00890078
PACV 192326Z 07011G20KT 2 1/2SM +RA BR FEW021 SCT028 OVC034 09/08 A2890 RMK AO2 PK WND 12032/2254 P0014 T00890078
PACV 192317Z 08012G22KT 1 3/4SM +RA BR FEW022 BKN033 OVC044 09/08 A2891 RMK AO2 PK WND 12032/2254 P0010 T00890083
PACV 192304Z 10013G27KT 2 1/2SM RA BR BKN028 OVC033 09/08 A2891 RMK AO2 PK WND 12032/2254 P0004 T00940078
PACV 192302Z 10015G33KT 3SM RA BR FEW023 OVC030 09/08 A2892 RMK AO2 PK WND 12032/2254 P0003 T00940078
PACV 192253Z 10018G33KT 3SM RA BR FEW021 BKN028 OVC035 09/08 A2890 RMK AO2 PK WND 11033/2154 SLP787 P0011 T00940078
PACV 192249Z 11018G30KT 3SM RA BR FEW021 BKN028 OVC035 09/08 A2891 RMK AO2 PK WND 11033/2154 P0010
PACV 192218Z 10019G29KT 8SM -RA FEW018 SCT024 OVC042 09/08 A2891 RMK AO2 PK WND 11033/2154 P0002 T00940083
PACV 192153Z 11022G37KT 7SM -RA BKN020 OVC031 09/08 A2891 RMK AO2 PK WND 13037/2145 SLP788 P0035 T00940083
PACV 192147Z 10018G37KT 3SM -RA BR BKN018 BKN024 OVC033 09/08 A2890 RMK AO2 PK WND 13037/2145 P0035
PACV 192130Z 12013G34KT 1 1/2SM +RA BR BKN025 BKN030 OVC035 09/09 A2890 RMK AO2 PK WND 08034/2121 P0026 T00940089
PACV 192117Z 10011G28KT 1 3/4SM +RA BR FEW023 SCT027 OVC033 09/08 A2890 RMK AO2 PK WND 12028/2109 P0014 T00940083
PACV 192112Z 11016G28KT 2 1/2SM R27/6000VP6000FT +RA BR FEW023 BKN027 OVC033 09/08 A2890 RMK AO2 PK WND 12028/2109 P0012 T00940078
PACV 192101Z 12013G28KT 1 3/4SM +RA BR BKN024 OVC033 09/08 A2890 RMK AO2 PK WND 11027/2057 P0006 T00940083
PACV 192053Z 11022G28KT 5SM -RA BR BKN026 OVC038 09/08 A2889 RMK AO2 PK WND 10042/1957 SLP784 P0006 60057 T00940078 53009
PACV 192015Z 10022G37KT 6SM RA BR BKN024 OVC036 10/08 A2888 RMK AO2 PK WND 10042/1957 P0003 T01000078
PACV 192000Z 10026G42KT 5SM -RA BR FEW024 BKN034 OVC041 09/08 A2888 RMK AO2 PK WND 10042/1957 P0000 T00940078
PACV 191953Z 10028G50KT 2 1/2SM RA BR FEW026 OVC034 09/08 A2887 RMK AO2 PK WND 11050/1946 SLP775 P0025 T00940083
PACV 191951Z 10026G50KT 070V130 2 1/2SM RA BR FEW026 OVC034 09/08 A2887 RMK AO2 PK WND 11050/1946 P0025
PACV 191926Z 10010G25KT 070V140 1 3/4SM +RA BR OVC034 09/08 A2886 RMK AO2 PK WND 11031/1904 P0012 T00940083
PACV 191911Z 06010G31KT 4SM RA BR FEW028 BKN035 OVC043 10/09 A2885 RMK AO2 PK WND 11031/1904 P0005 T01000089
PACV 191853Z 09009G16KT 2 1/2SM RA BR FEW027 BKN033 OVC042 09/08 A2886 RMK AO2 PK WND 10036/1819 SLP774 P0026 T00940083
PACV 191829Z 09014G35KT 2SM RA BR FEW024 BKN033 OVC046 11/09 A2886 RMK AO2 PK WND 10036/1819 P0016 T01060089
PACV 191753Z 08015G23KT 4SM +RA BR SCT030 OVC037 09/08 A2886 RMK AO2 PK WND 10029/1743 SLP774 P0020 60036 T00940078 10111 20072 56044
PACV 191653Z 07015G26KT 4SM RA BR OVC044 09/07 A2887 RMK AO2 PK WND 07030/1631 SLP778 P0005 T00890067
PACV 191553Z 07017G34KT 10SM -RA FEW046 BKN070 OVC080 11/06 A2889 RMK AO2 PK WND 05034/1549 PRESFR SLP783 P0000 T01110056
PACV 191453Z 05012G19KT 020V080 10SM -RA OVC050 08/06 A2899 RMK AO2 PK WND 03029/1415 SLP818 P0003 60011 T00830056 56102
PACV 191353Z 04010KT 7SM -RA OVC047 07/06 A2909 RMK AO2 PRESFR SLP851 P0008 T00720056
PACV 191253Z 05009G18KT 10SM -RA FEW039 BKN055 OVC070 09/04 A2919 RMK AO2 SLP885 P0000 T00890044
PACV 191153Z 04010G17KT 10SM -RA BKN055 BKN070 OVC080 08/04 A2930 RMK AO2 PRESFR SLP920 P0001 60001 70012 T00830044 10089 20056 58097
PACV 191053Z 34003KT 10SM -RA OVC048 06/06 A2942 RMK AO2 RAB0958 SLP962 P0000 T00560056
PACV 190953Z 00000KT 10SM OVC070 08/04 A2949 RMK AO2 PRESFR SLP987 T00780044
PACV 190853Z 08003KT 10SM BKN070 OVC090 08/04 A2958 RMK AO2 SLP018 60000 T00780044 400940061 58064
PACV 190753Z 07006KT 10SM FEW044 BKN070 OVC085 09/04 A2966 RMK AO2 RAE00 SLP043 P0000 T00890044
PACV 190653Z 06005KT 10SM -RA BKN042 OVC049 08/05 A2972 RMK AO2 SLP063 P0000 T00830050
PACV 190553Z 08006KT 10SM -RA BKN038 OVC049 08/05 A2977 RMK AO2 SLP082 P0001 60005 T00780050 10089 20067 58038
PACV 190453Z 08007KT 10SM -RA FEW038 OVC055 08/04 A2982 RMK AO2 RAE14B42 SLP097 P0000 T00780044
PACV 190353Z 07010KT 10SM -RA SCT040 OVC050 07/04 A2985 RMK AO2 RAE14B32 SLP107 P0000 T00720044
PACV 190253Z 07008KT 10SM -RA OVC041 07/06 A2988 RMK AO2 SLP120 P0002 60004 T00670056 58029
PACV 190153Z 08006KT 9SM -RA SCT035 OVC043 08/06 A2992 RMK AO2 SLP131 P0001 T00780056
PACV 190053Z 08006KT 10SM -RA BKN036 OVC044 08/06 A2994 RMK AO2 RAB18 SLP140 P0001 T00830056
PACV 182353Z 07004KT 10SM FEW028 BKN036 OVC047 09/06 A2997 RMK AO2 RAB00E37 SLP149 P0000 60001 T00890056 10094 20072 58021
PACV 182253Z 07009KT 10SM BKN037 BKN060 OVC100 09/05 A2999 RMK AO2 SLP157 T00940050
PACV 182153Z 07008KT 10SM FEW028 SCT036 OVC060 09/05 A3002 RMK AO2 SLP166 T00940050
PACV 182053Z 07004KT 10SM FEW030 BKN042 OVC055 09/06 A3003 RMK AO2 RAB1955E21 SLP171 P0001 60001 T00890056 50007
PACV 181953Z 07009KT 10SM FEW020 BKN034 OVC047 08/05 A3004 RMK AO2 RAB28E50 SLP171 P0000 T00830050
PACV 181853Z VRB06KT 10SM FEW030 BKN042 OVC080 09/06 A3003 RMK AO2 SLP168 T00890056
PACV 181753Z 07007KT 10SM FEW018 SCT028 OVC037 07/05 A3001 RMK AO2 RAE33 SLP164 P0002 60005 T00720050 10072 20061 51011